createdAt,value
2018-02-15T00:01:36.649Z,7.50
2018-02-15T00:04:04.191Z,5.93
2018-02-15T00:06:31.739Z,4.77
2018-02-15T00:08:59.544Z,7.17
2018-02-15T00:11:27.302Z,6.30
2018-02-15T00:13:55.055Z,4.50
2018-02-15T00:16:22.919Z,7.07
2018-02-15T00:18:50.543Z,6.13
2018-02-15T00:21:18.369Z,4.83
2018-02-15T00:23:45.925Z,12.27
2018-02-15T00:26:13.515Z,5.80
2018-02-15T00:28:41.055Z,4.80
2018-02-15T00:31:08.610Z,4.73
2018-02-15T00:33:36.265Z,5.60
2018-02-15T00:36:03.817Z,9.40
2018-02-15T00:38:31.474Z,7.97
2018-02-15T00:40:59.024Z,5.70
2018-02-15T00:43:26.622Z,5.73
2018-02-15T00:45:54.169Z,7.07
2018-02-15T00:48:21.706Z,4.27
2018-02-15T00:50:49.242Z,4.37
2018-02-15T00:53:16.798Z,4.20
2018-02-15T00:55:44.517Z,8.40
2018-02-15T00:58:12.055Z,6.50
2018-02-15T01:00:39.607Z,6.10
2018-02-15T01:03:07.269Z,4.80
2018-02-15T01:05:34.888Z,4.60
2018-02-15T01:08:02.461Z,7.00
2018-02-15T01:10:30.003Z,8.13
2018-02-15T01:12:59.373Z,6.33
2018-02-15T01:15:26.942Z,5.03
2018-02-15T01:17:54.486Z,7.97
2018-02-15T01:20:22.038Z,6.03
2018-02-15T01:22:49.587Z,8.73
2018-02-15T01:25:17.158Z,8.33
2018-02-15T01:27:44.911Z,6.60
2018-02-15T01:30:12.464Z,6.53
2018-02-15T01:32:39.990Z,8.30
2018-02-15T01:35:07.600Z,9.60
2018-02-15T01:37:35.292Z,6.00
2018-02-15T01:40:03.046Z,8.47
2018-02-15T01:42:30.776Z,5.83
2018-02-15T01:44:58.329Z,6.60
2018-02-15T01:47:26.016Z,8.50
2018-02-15T01:50:04.177Z,5.20
2018-02-15T01:52:31.725Z,7.93
2018-02-15T01:54:59.533Z,7.60
2018-02-15T01:57:27.291Z,8.83
2018-02-15T01:59:54.834Z,9.00
2018-02-15T02:02:22.378Z,6.47
2018-02-15T02:04:49.919Z,9.87
2018-02-15T02:07:17.457Z,4.53
2018-02-15T02:09:45.340Z,7.83
2018-02-15T02:12:12.891Z,8.03
2018-02-15T02:14:40.422Z,8.47
2018-02-15T02:17:07.954Z,4.67
2018-02-15T02:19:35.495Z,7.97
2018-02-15T02:22:03.032Z,6.63
2018-02-15T02:24:30.793Z,10.07
2018-02-15T02:26:58.566Z,6.13
2018-02-15T02:29:26.092Z,9.03
2018-02-15T02:31:53.830Z,11.70
2018-02-15T02:34:21.602Z,11.90
2018-02-15T02:36:49.363Z,11.93
2018-02-15T02:39:16.904Z,8.43
2018-02-15T02:41:44.448Z,8.77
2018-02-15T02:44:12.005Z,11.57
2018-02-15T02:46:39.806Z,10.67
2018-02-15T02:49:07.437Z,8.00
2018-02-15T02:51:34.988Z,10.83
2018-02-15T02:54:02.655Z,6.47
2018-02-15T02:56:30.214Z,11.67
2018-02-15T02:58:57.754Z,12.90
2018-02-15T03:01:26.061Z,8.47
2018-02-15T03:03:53.633Z,11.40
2018-02-15T03:06:21.178Z,10.97
2018-02-15T03:08:48.763Z,12.03
2018-02-15T03:11:16.344Z,5.90
2018-02-15T03:13:43.883Z,11.77
2018-02-15T03:16:11.416Z,10.87
2018-02-15T03:18:38.948Z,9.43
2018-02-15T03:21:07.260Z,11.80
2018-02-15T03:23:34.943Z,8.00
2018-02-15T03:26:02.509Z,8.07
2018-02-15T03:28:30.056Z,9.03
2018-02-15T03:30:57.601Z,6.87
2018-02-15T03:33:25.165Z,10.93
2018-02-15T03:35:52.920Z,8.80
2018-02-15T03:38:20.459Z,7.90
2018-02-15T03:40:48.024Z,7.13
2018-02-15T03:43:15.556Z,8.97
2018-02-15T03:45:43.275Z,8.03
2018-02-15T03:48:10.830Z,9.20
2018-02-15T03:50:38.367Z,9.50
2018-02-15T03:53:05.931Z,10.70
2018-02-15T03:55:33.495Z,9.63
2018-02-15T03:58:01.264Z,10.10
2018-02-15T04:00:28.822Z,10.03
2018-02-15T04:02:56.450Z,8.27
2018-02-15T04:05:24.153Z,9.50
2018-02-15T04:07:51.692Z,6.33
2018-02-15T04:10:19.465Z,10.50
2018-02-15T04:12:47.001Z,8.97
2018-02-15T04:15:14.647Z,9.20
2018-02-15T04:17:42.193Z,11.80
2018-02-15T04:20:11.426Z,12.03
2018-02-15T04:22:38.977Z,9.57
2018-02-15T04:25:06.655Z,7.87
2018-02-15T04:27:34.269Z,9.57
2018-02-15T04:30:01.893Z,11.83
2018-02-15T04:32:29.651Z,9.87
2018-02-15T04:34:57.193Z,8.37
2018-02-15T04:37:24.877Z,8.13
2018-02-15T04:39:52.430Z,9.83
2018-02-15T04:42:20.092Z,7.20
2018-02-15T04:44:47.853Z,7.90
2018-02-15T04:47:15.632Z,8.87
2018-02-15T04:49:43.388Z,5.50
2018-02-15T04:52:11.140Z,8.67
2018-02-15T04:54:38.844Z,7.57
2018-02-15T04:57:06.385Z,9.20
2018-02-15T04:59:33.948Z,9.90
2018-02-15T05:02:02.266Z,11.17
2018-02-15T05:04:29.966Z,10.83
2018-02-15T05:06:57.731Z,10.40
2018-02-15T05:09:25.490Z,9.43
2018-02-15T05:11:53.230Z,11.00
2018-02-15T05:14:21.111Z,10.30
2018-02-15T05:16:48.712Z,15.77
2018-02-15T05:19:16.244Z,11.63
2018-02-15T05:21:44.016Z,10.87
2018-02-15T05:24:11.766Z,11.00
2018-02-15T05:26:39.454Z,13.60
2018-02-15T05:29:07.007Z,15.27
2018-02-15T05:31:34.709Z,10.57
2018-02-15T05:34:02.538Z,11.97
2018-02-15T05:36:30.082Z,10.30
2018-02-15T05:38:57.736Z,11.17
2018-02-15T05:41:25.423Z,12.10
2018-02-15T05:43:52.963Z,11.07
2018-02-15T05:46:20.530Z,11.40
2018-02-15T05:48:48.092Z,9.80
2018-02-15T05:51:15.865Z,8.07
2018-02-15T05:53:43.423Z,9.50
2018-02-15T05:56:11.096Z,10.90
2018-02-15T05:58:38.630Z,7.53
2018-02-15T06:01:06.380Z,8.30
2018-02-15T06:03:34.088Z,8.80
2018-02-15T06:06:01.630Z,8.93
2018-02-15T06:08:29.286Z,9.50
2018-02-15T06:10:56.827Z,8.97
2018-02-15T06:13:24.513Z,8.97
2018-02-15T06:15:52.073Z,10.80
2018-02-15T06:18:19.604Z,10.10
2018-02-15T06:20:47.136Z,12.07
2018-02-15T06:23:14.720Z,8.53
2018-02-15T06:25:42.263Z,10.57
2018-02-15T06:28:09.899Z,8.40
2018-02-15T06:30:37.715Z,10.20
2018-02-15T06:33:05.261Z,11.13
2018-02-15T06:35:32.886Z,11.83
2018-02-15T06:38:00.698Z,11.80
2018-02-15T06:40:28.458Z,15.57
2018-02-15T06:42:56.010Z,15.23
2018-02-15T06:45:23.578Z,19.23
2018-02-15T06:47:51.130Z,13.47
2018-02-15T06:50:18.694Z,11.67
2018-02-15T06:52:46.260Z,12.00
2018-02-15T06:55:14.113Z,10.30
2018-02-15T06:57:41.845Z,10.43
2018-02-15T07:00:09.647Z,12.13
2018-02-15T07:02:37.405Z,12.40
2018-02-15T07:05:04.972Z,14.87
2018-02-15T07:07:32.604Z,16.87
2018-02-15T07:10:00.156Z,16.50
2018-02-15T07:12:27.958Z,11.20
2018-02-15T07:14:55.504Z,13.20
2018-02-15T07:17:23.048Z,11.23
2018-02-15T07:19:50.608Z,11.83
2018-02-15T07:22:18.173Z,8.97
2018-02-15T07:24:45.709Z,8.23
2018-02-15T07:27:13.314Z,8.97
2018-02-15T07:29:41.065Z,7.53
2018-02-15T07:32:08.620Z,6.50
2018-02-15T07:34:36.157Z,7.03
2018-02-15T07:37:03.722Z,8.60
2018-02-15T07:39:31.257Z,7.93
2018-02-15T07:41:59.585Z,8.00
2018-02-15T07:44:27.673Z,7.53
2018-02-15T07:46:56.502Z,9.10
2018-02-15T07:49:25.036Z,9.07
2018-02-15T07:51:52.776Z,6.63
2018-02-15T07:54:20.325Z,9.07
2018-02-15T07:56:47.870Z,10.17
2018-02-15T07:59:16.193Z,7.40
2018-02-15T08:01:43.840Z,7.10
2018-02-15T08:04:11.583Z,6.70
2018-02-15T08:06:39.151Z,7.27
2018-02-15T08:09:06.698Z,6.23
2018-02-15T08:11:34.277Z,6.40
2018-02-15T08:14:01.831Z,8.60
2018-02-15T08:16:29.374Z,8.30
2018-02-15T08:18:56.971Z,9.63
2018-02-15T08:21:24.525Z,6.67
2018-02-15T08:23:52.077Z,11.97
2018-02-15T08:26:19.612Z,8.37
2018-02-15T08:28:47.345Z,12.17
2018-02-15T08:31:14.892Z,11.30
2018-02-15T08:33:42.416Z,6.10
2018-02-15T08:36:09.971Z,7.47
2018-02-15T08:38:37.517Z,6.40
2018-02-15T08:41:05.061Z,6.47
2018-02-15T08:43:32.625Z,5.83
2018-02-15T08:46:00.166Z,11.13
2018-02-15T08:48:27.985Z,5.20
2018-02-15T08:50:55.555Z,8.30
2018-02-15T08:53:23.148Z,10.67
2018-02-15T08:55:50.691Z,7.43
2018-02-15T08:58:19.098Z,6.90
2018-02-15T09:00:46.642Z,7.87
2018-02-15T09:03:14.213Z,10.40
2018-02-15T09:05:42.746Z,11.20
2018-02-15T09:08:10.270Z,9.13
2018-02-15T09:10:37.810Z,9.53
2018-02-15T09:13:05.351Z,8.67
2018-02-15T09:15:33.652Z,8.40
2018-02-15T09:18:01.467Z,7.57
2018-02-15T09:20:29.218Z,12.90
2018-02-15T09:22:56.982Z,11.37
2018-02-15T09:25:24.525Z,11.10
2018-02-15T09:27:52.088Z,7.73
2018-02-15T09:30:19.638Z,9.77
2018-02-15T09:32:47.173Z,9.80
2018-02-15T09:35:14.731Z,11.37
2018-02-15T09:37:42.412Z,12.70
2018-02-15T09:40:10.047Z,9.57
2018-02-15T09:42:37.624Z,10.03
2018-02-15T09:45:05.272Z,9.13
2018-02-15T09:47:33.007Z,10.53
2018-02-15T09:50:00.793Z,9.53
2018-02-15T09:52:28.392Z,10.90
2018-02-15T09:54:56.053Z,10.60
2018-02-15T09:57:23.914Z,11.93
2018-02-15T09:59:51.489Z,10.57
2018-02-15T10:02:19.049Z,7.77
2018-02-15T10:04:46.760Z,7.07
2018-02-15T10:07:14.479Z,10.13
2018-02-15T10:09:42.341Z,10.73
2018-02-15T10:12:09.898Z,9.63
2018-02-15T10:14:37.455Z,8.73
2018-02-15T10:17:04.993Z,10.47
2018-02-15T10:19:32.792Z,12.13
2018-02-15T10:22:00.336Z,8.87
2018-02-15T10:24:27.905Z,15.13
2018-02-15T10:26:55.463Z,12.27
2018-02-15T10:29:23.264Z,11.03
2018-02-15T10:31:50.786Z,14.67
2018-02-15T10:34:18.405Z,13.30
2018-02-15T10:36:46.178Z,15.53
2018-02-15T10:39:13.958Z,14.73
2018-02-15T10:41:41.729Z,10.77
2018-02-15T10:44:09.409Z,15.90
2018-02-15T10:46:36.959Z,21.13
2018-02-15T10:49:04.709Z,18.70
2018-02-15T10:51:32.262Z,28.57
2018-02-15T10:54:00.584Z,18.97
2018-02-15T10:56:28.190Z,17.90
2018-02-15T10:58:55.730Z,17.20
2018-02-15T11:01:28.994Z,16.70
2018-02-15T11:04:02.304Z,18.10
2018-02-15T11:06:29.854Z,20.60
2018-02-15T11:08:57.788Z,21.87
2018-02-15T11:11:25.528Z,13.87
2018-02-15T11:13:53.103Z,23.57
2018-02-15T11:16:20.889Z,24.97
2018-02-15T11:18:48.629Z,21.73
2018-02-15T11:21:16.409Z,17.47
2018-02-15T11:23:43.952Z,24.87
2018-02-15T11:26:11.638Z,25.30
2018-02-15T11:28:39.368Z,17.90
2018-02-15T11:31:07.140Z,21.67
2018-02-15T11:33:34.865Z,21.73
2018-02-15T11:36:02.440Z,24.93
2018-02-15T11:38:30.028Z,17.00
2018-02-15T11:40:57.588Z,20.57
2018-02-15T11:43:25.369Z,19.47
2018-02-15T11:45:53.118Z,22.90
2018-02-15T11:48:20.808Z,19.67
2018-02-15T11:50:48.375Z,24.07
2018-02-15T11:53:16.695Z,20.83
2018-02-15T11:55:44.244Z,21.60
2018-02-15T11:58:11.817Z,24.20
2018-02-15T12:00:39.373Z,25.67
2018-02-15T12:03:07.152Z,25.30
2018-02-15T12:05:34.696Z,20.70
2018-02-15T12:08:02.246Z,24.53
2018-02-15T12:10:29.795Z,21.77
2018-02-15T12:12:57.348Z,25.33
2018-02-15T12:15:25.660Z,20.07
2018-02-15T12:17:53.425Z,23.87
2018-02-15T12:20:21.121Z,27.43
2018-02-15T12:22:48.662Z,30.07
2018-02-15T12:25:16.219Z,24.77
2018-02-15T12:27:43.870Z,23.00
2018-02-15T12:30:11.406Z,23.83
2018-02-15T12:32:38.960Z,28.83
2018-02-15T12:35:06.529Z,25.13
2018-02-15T12:37:34.079Z,30.63
2018-02-15T12:40:01.650Z,26.40
2018-02-15T12:42:29.203Z,23.00
2018-02-15T12:44:56.894Z,21.43
2018-02-15T12:47:24.423Z,26.10
2018-02-15T12:49:51.995Z,23.60
2018-02-15T12:52:19.623Z,21.13
2018-02-15T12:54:47.169Z,24.50
2018-02-15T12:57:16.706Z,27.70
2018-02-15T12:59:44.248Z,27.90
2018-02-15T13:02:11.901Z,25.60
2018-02-15T13:04:39.474Z,29.80
2018-02-15T13:07:07.031Z,32.90
2018-02-15T13:09:34.626Z,22.97
2018-02-15T13:12:02.388Z,23.93
2018-02-15T13:14:30.713Z,32.50
2018-02-15T13:16:59.042Z,28.27
2018-02-15T13:19:38.594Z,31.73
2018-02-15T13:25:23.658Z,27.10
2018-02-15T13:28:03.225Z,20.90
2018-02-15T13:30:30.865Z,30.33
2018-02-15T13:32:58.439Z,25.47
2018-02-15T13:35:26.013Z,19.37
2018-02-15T13:37:54.462Z,23.03
2018-02-15T13:40:22.015Z,21.13
2018-02-15T13:42:49.576Z,24.00
2018-02-15T13:47:59.601Z,29.90
2018-02-15T13:53:21.508Z,25.73
2018-02-15T13:55:49.068Z,20.43
2018-02-15T13:58:16.639Z,25.17
2018-02-15T14:00:44.209Z,25.13
2018-02-15T14:03:12.560Z,23.83
2018-02-15T14:05:40.152Z,26.97
2018-02-15T14:08:08.494Z,28.07
2018-02-15T14:10:37.267Z,28.50
2018-02-15T14:13:04.907Z,25.13
2018-02-15T14:15:32.488Z,24.47
2018-02-15T14:18:00.082Z,28.23
2018-02-15T14:20:27.674Z,28.27
2018-02-15T14:22:56.005Z,26.93
2018-02-15T14:25:23.619Z,24.57
2018-02-15T14:27:51.184Z,28.23
2018-02-15T14:30:18.753Z,24.77
2018-02-15T14:32:46.337Z,30.00
2018-02-15T14:35:13.991Z,28.87
2018-02-15T14:37:41.562Z,26.67
2018-02-15T14:40:09.150Z,19.03
2018-02-15T14:42:36.715Z,28.40
2018-02-15T14:45:04.289Z,20.00
2018-02-15T14:47:32.632Z,27.03
2018-02-15T14:50:00.199Z,22.20
2018-02-15T14:52:27.759Z,21.90
2018-02-15T14:54:55.333Z,24.07
2018-02-15T14:57:22.982Z,25.43
2018-02-15T14:59:50.564Z,25.10
2018-02-15T15:02:18.173Z,26.17
2018-02-15T15:04:45.789Z,20.43
2018-02-15T15:07:13.357Z,32.90
2018-02-15T15:09:41.918Z,25.47
2018-02-15T15:12:09.472Z,23.20
2018-02-15T15:14:37.138Z,23.20
2018-02-15T15:17:04.804Z,28.73
2018-02-15T15:19:33.962Z,21.37
2018-02-15T15:22:01.560Z,26.90
2018-02-15T15:24:29.146Z,24.30
2018-02-15T15:26:57.483Z,27.00
2018-02-15T15:29:25.174Z,24.13
2018-02-15T15:31:52.823Z,27.70
2018-02-15T15:34:20.371Z,23.83
2018-02-15T15:36:48.033Z,27.10
2018-02-15T15:39:15.610Z,26.93
2018-02-15T15:41:43.172Z,23.47
2018-02-15T15:44:10.837Z,23.00
2018-02-15T15:46:38.412Z,22.63
2018-02-15T15:49:06.766Z,20.53
2018-02-15T15:51:35.867Z,19.90
2018-02-15T15:54:03.513Z,21.40
2018-02-15T15:56:31.083Z,24.53
2018-02-15T15:58:58.635Z,19.77
2018-02-15T16:01:26.231Z,17.60
2018-02-15T16:03:54.574Z,22.47
2018-02-15T16:06:22.238Z,21.63
2018-02-15T16:08:50.599Z,21.93
2018-02-15T16:11:18.170Z,23.40
2018-02-15T16:13:45.707Z,23.33
2018-02-15T16:16:42.923Z,21.53
2018-02-15T16:19:10.551Z,20.67
2018-02-15T16:21:38.098Z,18.73
2018-02-15T16:24:06.405Z,21.27
2018-02-15T16:26:34.127Z,19.00
2018-02-15T16:29:01.671Z,17.13
2018-02-15T16:31:29.211Z,20.03
2018-02-15T16:33:57.410Z,21.07
2018-02-15T16:36:24.953Z,27.07
2018-02-15T16:38:52.502Z,22.97
2018-02-15T16:41:20.042Z,19.37
2018-02-15T16:43:47.615Z,28.10
2018-02-15T16:46:15.174Z,24.73
2018-02-15T16:48:42.798Z,26.30
2018-02-15T16:51:10.636Z,24.10
2018-02-15T16:53:38.214Z,27.37
2018-02-15T16:56:05.767Z,24.00
2018-02-15T16:58:33.318Z,22.83
2018-02-15T17:01:01.842Z,23.27
2018-02-15T17:03:29.396Z,18.97
2018-02-15T17:05:57.194Z,23.80
2018-02-15T17:08:24.742Z,19.97
2018-02-15T17:10:52.301Z,18.57
2018-02-15T17:13:19.858Z,21.37
2018-02-15T17:15:47.613Z,23.73
2018-02-15T17:18:15.157Z,22.73
2018-02-15T17:20:42.698Z,17.27
2018-02-15T17:23:10.286Z,11.77
2018-02-15T17:25:37.828Z,12.20
2018-02-15T17:28:05.519Z,16.17
2018-02-15T17:30:33.160Z,16.47
2018-02-15T17:33:00.723Z,13.97
2018-02-15T17:35:28.502Z,18.57
2018-02-15T17:37:56.061Z,19.20
2018-02-15T17:40:23.607Z,12.10
2018-02-15T17:42:51.136Z,15.77
2018-02-15T17:45:18.690Z,18.10
2018-02-15T17:47:46.995Z,20.53
2018-02-15T17:50:15.709Z,18.67
2018-02-15T17:52:43.470Z,18.63
2018-02-15T17:55:11.006Z,17.10
2018-02-15T17:57:38.569Z,17.87
2018-02-15T18:00:06.150Z,11.63
2018-02-15T18:02:33.691Z,19.70
2018-02-15T18:05:01.230Z,11.07
2018-02-15T18:07:28.787Z,17.40
2018-02-15T18:09:56.329Z,14.27
2018-02-15T18:12:24.667Z,13.50
2018-02-15T18:14:52.223Z,13.07
2018-02-15T18:17:19.782Z,15.53
2018-02-15T18:19:47.630Z,13.57
2018-02-15T18:22:15.353Z,17.37
2018-02-15T18:24:42.904Z,18.33
2018-02-15T18:27:11.227Z,13.20
2018-02-15T18:29:38.777Z,15.67
2018-02-15T18:32:06.426Z,17.87
2018-02-15T18:34:34.197Z,15.90
2018-02-15T18:37:01.731Z,11.27
2018-02-15T18:39:30.051Z,18.87
2018-02-15T18:41:57.819Z,8.50
2018-02-15T18:44:25.585Z,12.60
2018-02-15T18:46:53.145Z,12.97
2018-02-15T18:49:20.737Z,15.23
2018-02-15T18:51:48.302Z,12.07
2018-02-15T18:54:16.609Z,13.97
2018-02-15T18:56:44.156Z,11.37
2018-02-15T18:59:12.803Z,19.53
2018-02-15T19:01:40.362Z,10.23
2018-02-15T19:04:08.822Z,10.90
2018-02-15T19:06:36.393Z,13.03
2018-02-15T19:09:03.938Z,9.17
2018-02-15T19:11:31.487Z,14.90
2018-02-15T19:13:59.069Z,16.67
2018-02-15T19:16:26.824Z,18.30
2018-02-15T19:18:54.358Z,16.30
2018-02-15T19:21:21.933Z,13.50
2018-02-15T19:23:49.478Z,13.30
2018-02-15T19:26:17.263Z,13.70
2018-02-15T19:28:44.822Z,14.57
2018-02-15T19:31:12.364Z,9.27
2018-02-15T19:33:39.892Z,11.77
2018-02-15T19:36:07.708Z,11.93
2018-02-15T19:38:35.247Z,10.30
2018-02-15T19:41:02.859Z,17.67
2018-02-15T19:43:30.419Z,9.67
2018-02-15T19:45:58.028Z,18.30
2018-02-15T19:48:25.622Z,13.73
2018-02-15T19:50:53.371Z,18.60
2018-02-15T19:53:20.912Z,16.20
2018-02-15T19:55:48.469Z,15.13
2018-02-15T19:58:16.030Z,15.47
2018-02-15T20:00:43.749Z,13.27
2018-02-15T20:03:11.586Z,16.47
2018-02-15T20:05:39.135Z,12.20
2018-02-15T20:08:06.679Z,11.47
2018-02-15T20:10:34.239Z,18.27
2018-02-15T20:13:01.800Z,17.67
2018-02-15T20:15:35.075Z,16.00
2018-02-15T20:18:02.718Z,15.67
2018-02-15T20:20:30.260Z,16.53
2018-02-15T20:22:58.576Z,17.77
2018-02-15T20:25:26.144Z,11.07
2018-02-15T20:27:59.420Z,14.70
2018-02-15T20:30:26.975Z,19.00
2018-02-15T20:32:54.531Z,19.10
2018-02-15T20:35:22.344Z,20.30
2018-02-15T20:37:55.594Z,14.73
2018-02-15T20:40:28.708Z,9.83
2018-02-15T20:42:56.383Z,16.00
2018-02-15T20:45:23.932Z,13.10
2018-02-15T20:47:51.521Z,8.57
2018-02-15T20:50:24.695Z,12.97
2018-02-15T20:52:58.008Z,13.90
2018-02-15T20:55:31.268Z,17.33
2018-02-15T20:57:58.942Z,12.47
2018-02-15T21:00:26.484Z,17.73
2018-02-15T21:02:54.155Z,15.63
2018-02-15T21:05:21.890Z,21.37
2018-02-15T21:07:49.425Z,19.93
2018-02-15T21:10:17.754Z,22.60
2018-02-15T21:12:45.293Z,25.63
2018-02-15T21:18:33.903Z,24.83
2018-02-15T21:21:01.444Z,22.10
2018-02-15T21:23:28.999Z,21.60
2018-02-15T21:25:56.567Z,21.23
2018-02-15T21:28:24.335Z,29.50
2018-02-15T21:30:52.080Z,22.10
2018-02-15T21:33:19.865Z,28.37
2018-02-15T21:35:47.402Z,27.93
2018-02-15T21:38:15.020Z,27.07
2018-02-15T21:40:42.615Z,24.67
2018-02-15T21:43:10.256Z,34.43
2018-02-15T21:45:38.057Z,35.17
2018-02-15T21:48:05.829Z,24.97
2018-02-15T21:50:33.533Z,35.57
2018-02-15T21:53:01.314Z,31.60
2018-02-15T21:55:29.046Z,27.60
2018-02-15T21:57:56.583Z,30.37
2018-02-15T22:03:07.533Z,31.33
2018-02-15T22:05:35.054Z,21.77
2018-02-15T22:08:02.736Z,25.83
2018-02-15T22:10:30.308Z,21.80
2018-02-15T22:12:57.866Z,26.63
2018-02-15T22:15:25.423Z,27.03
2018-02-15T22:17:52.991Z,23.70
2018-02-15T22:20:20.561Z,24.90
2018-02-15T22:22:48.134Z,29.70
2018-02-15T22:25:15.773Z,22.37
2018-02-15T22:27:43.420Z,25.07
2018-02-15T22:30:11.082Z,21.83
2018-02-15T22:32:38.662Z,26.13
2018-02-15T22:35:06.208Z,26.17
2018-02-15T22:37:33.762Z,23.47
2018-02-15T22:40:01.331Z,22.10
2018-02-15T22:42:28.921Z,23.10
2018-02-15T22:44:57.974Z,16.50
2018-02-15T22:47:25.570Z,20.20
2018-02-15T22:49:53.126Z,22.50
2018-02-15T22:52:20.683Z,19.03
2018-02-15T22:54:48.253Z,25.77
2018-02-15T22:57:15.823Z,20.10
2018-02-15T22:59:43.361Z,17.57
2018-02-15T23:02:10.925Z,21.37
2018-02-15T23:04:38.491Z,18.97
2018-02-15T23:07:06.146Z,16.77
2018-02-15T23:09:33.696Z,23.63
2018-02-15T23:12:01.249Z,22.77
2018-02-15T23:14:28.789Z,25.53
2018-02-15T23:16:56.343Z,22.87
2018-02-15T23:19:23.905Z,22.70
2018-02-15T23:21:51.461Z,18.50
2018-02-15T23:24:19.050Z,24.17
2018-02-15T23:26:46.584Z,20.97
2018-02-15T23:29:14.141Z,22.60
2018-02-15T23:31:41.698Z,22.13
2018-02-15T23:34:09.257Z,30.97
2018-02-15T23:36:37.570Z,24.87
2018-02-15T23:39:05.218Z,27.57
2018-02-15T23:41:32.821Z,24.27
2018-02-15T23:44:00.366Z,30.90
2018-02-15T23:46:27.926Z,30.13
2018-02-15T23:48:55.485Z,26.17
2018-02-15T23:51:23.049Z,23.77
2018-02-15T23:53:50.606Z,26.50
2018-02-15T23:56:18.168Z,22.53
2018-02-15T23:58:45.753Z,24.10
